TimePDT,TemperatureF,Dew PointF,Humidity,Sea Level PressureIn,VisibilityMPH,Wind Direction,Wind SpeedMPH,Gust SpeedMPH,PrecipitationIn,Events,Conditions,WindDirDegrees,DateUTC
12:53 AM,57.0,37.0,47,30.10,10.0,North,5.8,-,N/A,,Clear,10,2012-10-07 07:53:00
1:53 AM,53.1,37.0,55,30.11,10.0,NW,4.6,-,N/A,,Clear,320,2012-10-07 08:53:00
2:53 AM,52.0,37.0,57,30.09,10.0,NNW,4.6,-,N/A,,Clear,340,2012-10-07 09:53:00
3:53 AM,54.0,37.9,55,30.08,10.0,Calm,Calm,-,N/A,,Clear,0,2012-10-07 10:53:00
4:53 AM,54.0,39.0,57,30.07,10.0,Variable,3.5,-,N/A,,Clear,0,2012-10-07 11:53:00
5:53 AM,48.9,42.1,77,30.08,10.0,Calm,Calm,-,N/A,,Clear,0,2012-10-07 12:53:00
6:53 AM,48.0,41.0,77,30.08,10.0,Calm,Calm,-,N/A,,Clear,0,2012-10-07 13:53:00
7:53 AM,46.9,43.0,86,30.08,7.0,Calm,Calm,-,N/A,,Clear,0,2012-10-07 14:53:00
8:53 AM,51.1,43.0,74,30.08,7.0,Calm,Calm,-,N/A,,Clear,0,2012-10-07 15:53:00
9:53 AM,55.9,43.0,62,30.08,10.0,Calm,Calm,-,N/A,,Clear,0,2012-10-07 16:53:00
10:53 AM,55.9,44.1,64,30.07,9.0,Calm,Calm,-,N/A,,Clear,0,2012-10-07 17:53:00
11:53 AM,62.1,37.9,41,30.06,9.0,North,6.9,-,N/A,,Clear,10,2012-10-07 18:53:00
12:53 PM,64.0,41.0,43,30.04,10.0,ENE,4.6,-,N/A,,Clear,70,2012-10-07 19:53:00
1:53 PM,68.0,41.0,37,30.01,10.0,Variable,3.5,-,N/A,,Clear,0,2012-10-07 20:53:00
2:53 PM,68.0,39.0,35,29.99,10.0,ENE,5.8,-,N/A,,Clear,70,2012-10-07 21:53:00
3:53 PM,70.0,37.9,31,29.97,10.0,Variable,4.6,-,N/A,,Clear,0,2012-10-07 22:53:00
4:53 PM,70.0,36.0,29,29.95,10.0,NNE,5.8,-,N/A,,Clear,30,2012-10-07 23:53:00
5:53 PM,68.0,39.0,35,29.94,10.0,North,5.8,-,N/A,,Clear,10,2012-10-08 00:53:00
6:53 PM,64.0,39.0,40,29.94,9.0,Calm,Calm,-,N/A,,Clear,0,2012-10-08 01:53:00
7:53 PM,61.0,37.9,42,29.94,10.0,NNE,3.5,-,N/A,,Clear,20,2012-10-08 02:53:00
8:53 PM,59.0,37.9,46,29.94,10.0,Calm,Calm,-,N/A,,Clear,0,2012-10-08 03:53:00
9:53 PM,57.0,39.0,51,29.94,10.0,Calm,Calm,-,N/A,,Clear,0,2012-10-08 04:53:00
10:53 PM,55.9,39.9,55,29.94,10.0,Calm,Calm,-,N/A,,Clear,0,2012-10-08 05:53:00
11:53 PM,54.0,39.9,59,29.93,10.0,Calm,Calm,-,N/A,,Clear,0,2012-10-08 06:53:00